sensor_id;sensor_type;location;lat;lon;timestamp;P1;durP1;ratioP1;P2;durP2;ratioP2
25327;SDS011;13279;51.300;12.394;2023-08-06T00:01:10;5.17;;;4.63;;
25327;SDS011;13279;51.300;12.394;2023-08-06T00:03:39;7.73;;;5.23;;
25327;SDS011;13279;51.300;12.394;2023-08-06T00:06:06;7.27;;;4.40;;
25327;SDS011;13279;51.300;12.394;2023-08-06T00:08:34;7.77;;;4.83;;
25327;SDS011;13279;51.300;12.394;2023-08-06T00:11:01;5.33;;;4.37;;
25327;SDS011;13279;51.300;12.394;2023-08-06T00:13:29;4.23;;;3.80;;
25327;SDS011;13279;51.300;12.394;2023-08-06T00:16:08;5.27;;;4.00;;
25327;SDS011;13279;51.300;12.394;2023-08-06T00:18:36;5.90;;;3.80;;
25327;SDS011;13279;51.300;12.394;2023-08-06T00:21:05;4.87;;;4.30;;
25327;SDS011;13279;51.300;12.394;2023-08-06T00:23:33;8.83;;;3.90;;
25327;SDS011;13279;51.300;12.394;2023-08-06T00:26:00;9.67;;;4.80;;
25327;SDS011;13279;51.300;12.394;2023-08-06T00:28:28;6.03;;;4.87;;
25327;SDS011;13279;51.300;12.394;2023-08-06T00:30:55;5.87;;;4.60;;
25327;SDS011;13279;51.300;12.394;2023-08-06T00:33:23;7.97;;;4.67;;
25327;SDS011;13279;51.300;12.394;2023-08-06T00:35:51;8.13;;;6.07;;
25327;SDS011;13279;51.300;12.394;2023-08-06T00:38:20;13.97;;;7.30;;
25327;SDS011;13279;51.300;12.394;2023-08-06T00:40:47;7.23;;;4.83;;
25327;SDS011;13279;51.300;12.394;2023-08-06T00:43:15;8.43;;;4.70;;
25327;SDS011;13279;51.300;12.394;2023-08-06T00:45:42;5.97;;;4.40;;
25327;SDS011;13279;51.300;12.394;2023-08-06T00:48:10;5.77;;;4.53;;
25327;SDS011;13279;51.300;12.394;2023-08-06T00:50:37;7.83;;;5.10;;
25327;SDS011;13279;51.300;12.394;2023-08-06T00:53:05;7.70;;;4.40;;
25327;SDS011;13279;51.300;12.394;2023-08-06T00:55:34;9.67;;;4.47;;
25327;SDS011;13279;51.300;12.394;2023-08-06T00:58:02;7.27;;;4.70;;
25327;SDS011;13279;51.300;12.394;2023-08-06T01:00:30;9.07;;;4.40;;
25327;SDS011;13279;51.300;12.394;2023-08-06T01:02:57;5.30;;;4.23;;
25327;SDS011;13279;51.300;12.394;2023-08-06T01:05:25;5.83;;;4.23;;
25327;SDS011;13279;51.300;12.394;2023-08-06T01:07:57;5.50;;;4.90;;
25327;SDS011;13279;51.300;12.394;2023-08-06T01:10:44;6.23;;;4.37;;
25327;SDS011;13279;51.300;12.394;2023-08-06T01:13:24;10.53;;;4.03;;
25327;SDS011;13279;51.300;12.394;2023-08-06T01:15:58;4.67;;;4.13;;
25327;SDS011;13279;51.300;12.394;2023-08-06T01:18:26;4.17;;;3.87;;
25327;SDS011;13279;51.300;12.394;2023-08-06T01:20:55;4.87;;;4.30;;
25327;SDS011;13279;51.300;12.394;2023-08-06T01:23:23;4.57;;;4.00;;
25327;SDS011;13279;51.300;12.394;2023-08-06T01:25:53;4.13;;;3.53;;
25327;SDS011;13279;51.300;12.394;2023-08-06T01:28:40;4.40;;;4.00;;
25327;SDS011;13279;51.300;12.394;2023-08-06T01:31:15;4.37;;;3.93;;
25327;SDS011;13279;51.300;12.394;2023-08-06T01:33:45;4.73;;;4.20;;
25327;SDS011;13279;51.300;12.394;2023-08-06T01:36:16;5.33;;;4.23;;
25327;SDS011;13279;51.300;12.394;2023-08-06T01:38:44;4.00;;;3.70;;
25327;SDS011;13279;51.300;12.394;2023-08-06T01:41:11;7.20;;;4.60;;
25327;SDS011;13279;51.300;12.394;2023-08-06T01:43:39;4.67;;;3.57;;
25327;SDS011;13279;51.300;12.394;2023-08-06T01:46:06;4.20;;;3.90;;
25327;SDS011;13279;51.300;12.394;2023-08-06T01:48:34;5.43;;;4.33;;
25327;SDS011;13279;51.300;12.394;2023-08-06T01:51:03;4.40;;;4.00;;
25327;SDS011;13279;51.300;12.394;2023-08-06T01:53:32;5.90;;;4.10;;
25327;SDS011;13279;51.300;12.394;2023-08-06T01:55:59;7.37;;;4.70;;
25327;SDS011;13279;51.300;12.394;2023-08-06T01:58:27;7.03;;;4.80;;
25327;SDS011;13279;51.300;12.394;2023-08-06T02:00:54;5.53;;;4.13;;
25327;SDS011;13279;51.300;12.394;2023-08-06T02:03:23;3.97;;;3.63;;
25327;SDS011;13279;51.300;12.394;2023-08-06T02:05:50;5.33;;;4.53;;
25327;SDS011;13279;51.300;12.394;2023-08-06T02:08:18;5.57;;;4.60;;
25327;SDS011;13279;51.300;12.394;2023-08-06T02:10:47;6.03;;;4.80;;
25327;SDS011;13279;51.300;12.394;2023-08-06T02:13:15;8.53;;;4.43;;
25327;SDS011;13279;51.300;12.394;2023-08-06T02:15:42;5.60;;;4.50;;
25327;SDS011;13279;51.300;12.394;2023-08-06T02:18:11;4.73;;;4.33;;
25327;SDS011;13279;51.300;12.394;2023-08-06T02:20:38;6.70;;;4.60;;
25327;SDS011;13279;51.300;12.394;2023-08-06T02:23:05;6.27;;;4.80;;
25327;SDS011;13279;51.300;12.394;2023-08-06T02:25:33;7.63;;;4.70;;
25327;SDS011;13279;51.300;12.394;2023-08-06T02:28:02;12.87;;;5.03;;
25327;SDS011;13279;51.300;12.394;2023-08-06T02:30:30;5.93;;;4.80;;
25327;SDS011;13279;51.300;12.394;2023-08-06T02:32:58;7.13;;;5.60;;
25327;SDS011;13279;51.300;12.394;2023-08-06T02:35:26;10.10;;;5.30;;
25327;SDS011;13279;51.300;12.394;2023-08-06T02:37:54;6.80;;;5.63;;
25327;SDS011;13279;51.300;12.394;2023-08-06T02:40:21;9.83;;;6.07;;
25327;SDS011;13279;51.300;12.394;2023-08-06T02:42:49;7.60;;;5.30;;
25327;SDS011;13279;51.300;12.394;2023-08-06T02:45:17;5.77;;;4.83;;
25327;SDS011;13279;51.300;12.394;2023-08-06T02:47:45;10.13;;;4.97;;
25327;SDS011;13279;51.300;12.394;2023-08-06T02:50:12;9.57;;;6.77;;
25327;SDS011;13279;51.300;12.394;2023-08-06T02:52:40;7.20;;;5.50;;
25327;SDS011;13279;51.300;12.394;2023-08-06T02:55:08;7.47;;;5.73;;
25327;SDS011;13279;51.300;12.394;2023-08-06T02:57:40;8.00;;;5.67;;
25327;SDS011;13279;51.300;12.394;2023-08-06T03:00:08;8.70;;;5.07;;
25327;SDS011;13279;51.300;12.394;2023-08-06T03:02:38;10.47;;;6.27;;
25327;SDS011;13279;51.300;12.394;2023-08-06T03:05:35;6.33;;;5.47;;
25327;SDS011;13279;51.300;12.394;2023-08-06T03:08:03;7.90;;;5.80;;
25327;SDS011;13279;51.300;12.394;2023-08-06T03:10:33;7.07;;;5.83;;
25327;SDS011;13279;51.300;12.394;2023-08-06T03:13:03;10.33;;;6.77;;
25327;SDS011;13279;51.300;12.394;2023-08-06T03:15:31;9.63;;;5.57;;
25327;SDS011;13279;51.300;12.394;2023-08-06T03:18:00;5.80;;;5.20;;
25327;SDS011;13279;51.300;12.394;2023-08-06T03:20:27;8.33;;;5.77;;
25327;SDS011;13279;51.300;12.394;2023-08-06T03:22:55;7.03;;;5.73;;
25327;SDS011;13279;51.300;12.394;2023-08-06T03:25:22;8.60;;;6.30;;
25327;SDS011;13279;51.300;12.394;2023-08-06T03:27:50;8.77;;;6.20;;
25327;SDS011;13279;51.300;12.394;2023-08-06T03:30:18;8.33;;;6.17;;
25327;SDS011;13279;51.300;12.394;2023-08-06T03:32:47;8.17;;;6.37;;
25327;SDS011;13279;51.300;12.394;2023-08-06T03:35:18;8.60;;;5.83;;
25327;SDS011;13279;51.300;12.394;2023-08-06T03:37:47;16.43;;;7.53;;
25327;SDS011;13279;51.300;12.394;2023-08-06T03:40:15;11.77;;;6.50;;
25327;SDS011;13279;51.300;12.394;2023-08-06T03:42:43;10.60;;;5.60;;
25327;SDS011;13279;51.300;12.394;2023-08-06T03:45:10;7.50;;;6.23;;
25327;SDS011;13279;51.300;12.394;2023-08-06T03:47:40;13.33;;;6.17;;
25327;SDS011;13279;51.300;12.394;2023-08-06T03:50:08;11.93;;;7.03;;
25327;SDS011;13279;51.300;12.394;2023-08-06T03:52:37;12.33;;;6.23;;
25327;SDS011;13279;51.300;12.394;2023-08-06T03:55:05;9.07;;;6.77;;
25327;SDS011;13279;51.300;12.394;2023-08-06T03:57:32;7.43;;;6.20;;
25327;SDS011;13279;51.300;12.394;2023-08-06T04:00:00;11.70;;;6.47;;
25327;SDS011;13279;51.300;12.394;2023-08-06T04:02:40;7.67;;;6.03;;
25327;SDS011;13279;51.300;12.394;2023-08-06T04:05:10;9.37;;;5.83;;
25327;SDS011;13279;51.300;12.394;2023-08-06T04:07:38;9.80;;;6.23;;
25327;SDS011;13279;51.300;12.394;2023-08-06T04:10:06;10.17;;;6.10;;
25327;SDS011;13279;51.300;12.394;2023-08-06T04:12:34;8.67;;;5.97;;
25327;SDS011;13279;51.300;12.394;2023-08-06T04:15:02;9.03;;;6.63;;
25327;SDS011;13279;51.300;12.394;2023-08-06T04:17:30;9.40;;;6.33;;
25327;SDS011;13279;51.300;12.394;2023-08-06T04:19:58;7.37;;;6.53;;
25327;SDS011;13279;51.300;12.394;2023-08-06T04:22:26;8.87;;;7.13;;
25327;SDS011;13279;51.300;12.394;2023-08-06T04:24:55;7.93;;;6.73;;
25327;SDS011;13279;51.300;12.394;2023-08-06T04:27:22;9.23;;;5.93;;
25327;SDS011;13279;51.300;12.394;2023-08-06T04:29:50;9.83;;;5.57;;
25327;SDS011;13279;51.300;12.394;2023-08-06T04:32:18;6.00;;;5.13;;
25327;SDS011;13279;51.300;12.394;2023-08-06T04:34:49;5.60;;;5.10;;
25327;SDS011;13279;51.300;12.394;2023-08-06T04:37:17;8.60;;;5.13;;
25327;SDS011;13279;51.300;12.394;2023-08-06T04:39:44;7.03;;;4.77;;
25327;SDS011;13279;51.300;12.394;2023-08-06T04:42:13;11.30;;;4.70;;
25327;SDS011;13279;51.300;12.394;2023-08-06T04:44:41;6.57;;;4.77;;
25327;SDS011;13279;51.300;12.394;2023-08-06T04:47:08;5.50;;;4.60;;
25327;SDS011;13279;51.300;12.394;2023-08-06T04:49:35;4.63;;;4.23;;
25327;SDS011;13279;51.300;12.394;2023-08-06T04:52:03;6.07;;;5.13;;
25327;SDS011;13279;51.300;12.394;2023-08-06T04:54:31;7.00;;;4.20;;
25327;SDS011;13279;51.300;12.394;2023-08-06T04:56:58;5.07;;;4.37;;
25327;SDS011;13279;51.300;12.394;2023-08-06T04:59:27;6.30;;;4.10;;
25327;SDS011;13279;51.300;12.394;2023-08-06T05:01:55;6.73;;;4.20;;
25327;SDS011;13279;51.300;12.394;2023-08-06T05:04:22;4.40;;;4.10;;
25327;SDS011;13279;51.300;12.394;2023-08-06T05:06:49;5.73;;;4.60;;
25327;SDS011;13279;51.300;12.394;2023-08-06T05:09:17;6.53;;;4.40;;
25327;SDS011;13279;51.300;12.394;2023-08-06T05:11:46;5.60;;;4.67;;
25327;SDS011;13279;51.300;12.394;2023-08-06T05:14:13;4.77;;;4.37;;
25327;SDS011;13279;51.300;12.394;2023-08-06T05:16:42;5.43;;;4.63;;
25327;SDS011;13279;51.300;12.394;2023-08-06T05:19:09;4.23;;;3.87;;
25327;SDS011;13279;51.300;12.394;2023-08-06T05:21:37;7.47;;;4.20;;
25327;SDS011;13279;51.300;12.394;2023-08-06T05:24:04;4.67;;;3.93;;
25327;SDS011;13279;51.300;12.394;2023-08-06T05:26:31;5.83;;;4.60;;
25327;SDS011;13279;51.300;12.394;2023-08-06T05:29:00;4.40;;;3.80;;
25327;SDS011;13279;51.300;12.394;2023-08-06T05:31:28;6.10;;;3.70;;
25327;SDS011;13279;51.300;12.394;2023-08-06T05:33:56;3.40;;;3.20;;
25327;SDS011;13279;51.300;12.394;2023-08-06T05:36:23;4.63;;;3.53;;
25327;SDS011;13279;51.300;12.394;2023-08-06T05:38:51;6.37;;;2.93;;
25327;SDS011;13279;51.300;12.394;2023-08-06T05:41:18;4.30;;;3.43;;
25327;SDS011;13279;51.300;12.394;2023-08-06T05:43:45;5.77;;;3.90;;
25327;SDS011;13279;51.300;12.394;2023-08-06T05:46:13;4.37;;;3.27;;
25327;SDS011;13279;51.300;12.394;2023-08-06T05:48:40;3.53;;;3.23;;
25327;SDS011;13279;51.300;12.394;2023-08-06T05:51:09;5.63;;;3.50;;
25327;SDS011;13279;51.300;12.394;2023-08-06T05:53:38;6.63;;;2.90;;
25327;SDS011;13279;51.300;12.394;2023-08-06T05:56:05;3.03;;;2.83;;
25327;SDS011;13279;51.300;12.394;2023-08-06T05:58:33;4.20;;;3.80;;
25327;SDS011;13279;51.300;12.394;2023-08-06T06:01:00;3.83;;;3.40;;
25327;SDS011;13279;51.300;12.394;2023-08-06T06:03:28;6.87;;;3.50;;
25327;SDS011;13279;51.300;12.394;2023-08-06T06:05:55;4.00;;;3.40;;
25327;SDS011;13279;51.300;12.394;2023-08-06T06:08:24;3.80;;;3.43;;
25327;SDS011;13279;51.300;12.394;2023-08-06T06:10:51;4.10;;;3.70;;
25327;SDS011;13279;51.300;12.394;2023-08-06T06:13:18;6.40;;;3.60;;
25327;SDS011;13279;51.300;12.394;2023-08-06T06:15:46;6.00;;;3.47;;
25327;SDS011;13279;51.300;12.394;2023-08-06T06:18:14;4.00;;;3.60;;
25327;SDS011;13279;51.300;12.394;2023-08-06T06:20:41;3.83;;;3.53;;
25327;SDS011;13279;51.300;12.394;2023-08-06T06:23:08;4.40;;;3.30;;
25327;SDS011;13279;51.300;12.394;2023-08-06T06:25:41;7.13;;;3.50;;
25327;SDS011;13279;51.300;12.394;2023-08-06T06:28:09;3.87;;;3.17;;
25327;SDS011;13279;51.300;12.394;2023-08-06T06:30:36;3.47;;;3.20;;
25327;SDS011;13279;51.300;12.394;2023-08-06T06:33:04;3.30;;;3.10;;
25327;SDS011;13279;51.300;12.394;2023-08-06T06:35:31;3.67;;;3.47;;
25327;SDS011;13279;51.300;12.394;2023-08-06T06:37:59;3.80;;;3.37;;
25327;SDS011;13279;51.300;12.394;2023-08-06T06:40:26;5.67;;;2.83;;
25327;SDS011;13279;51.300;12.394;2023-08-06T06:42:55;3.13;;;2.83;;
25327;SDS011;13279;51.300;12.394;2023-08-06T06:45:22;7.57;;;2.73;;
25327;SDS011;13279;51.300;12.394;2023-08-06T06:47:50;4.70;;;2.90;;
25327;SDS011;13279;51.300;12.394;2023-08-06T06:50:17;3.53;;;2.57;;
25327;SDS011;13279;51.300;12.394;2023-08-06T06:52:45;2.40;;;2.20;;
25327;SDS011;13279;51.300;12.394;2023-08-06T06:55:12;2.73;;;2.53;;
25327;SDS011;13279;51.300;12.394;2023-08-06T06:57:39;3.23;;;2.97;;
25327;SDS011;13279;51.300;12.394;2023-08-06T07:00:09;2.33;;;2.23;;
25327;SDS011;13279;51.300;12.394;2023-08-06T07:02:37;2.97;;;2.40;;
25327;SDS011;13279;51.300;12.394;2023-08-06T07:05:04;2.60;;;2.13;;
25327;SDS011;13279;51.300;12.394;2023-08-06T07:07:33;2.57;;;2.00;;
25327;SDS011;13279;51.300;12.394;2023-08-06T07:10:00;4.20;;;2.13;;
25327;SDS011;13279;51.300;12.394;2023-08-06T07:12:28;2.57;;;2.20;;
25327;SDS011;13279;51.300;12.394;2023-08-06T07:14:55;3.03;;;2.30;;
25327;SDS011;13279;51.300;12.394;2023-08-06T07:17:24;2.43;;;2.17;;
25327;SDS011;13279;51.300;12.394;2023-08-06T07:19:51;2.70;;;2.33;;
25327;SDS011;13279;51.300;12.394;2023-08-06T07:22:19;1.90;;;1.80;;
25327;SDS011;13279;51.300;12.394;2023-08-06T07:24:46;1.80;;;1.70;;
25327;SDS011;13279;51.300;12.394;2023-08-06T07:27:14;2.80;;;1.73;;
25327;SDS011;13279;51.300;12.394;2023-08-06T07:29:41;5.37;;;2.23;;
25327;SDS011;13279;51.300;12.394;2023-08-06T07:32:09;1.87;;;1.77;;
25327;SDS011;13279;51.300;12.394;2023-08-06T07:34:37;1.77;;;1.63;;
25327;SDS011;13279;51.300;12.394;2023-08-06T07:37:05;2.33;;;2.07;;
25327;SDS011;13279;51.300;12.394;2023-08-06T07:39:32;3.40;;;1.77;;
25327;SDS011;13279;51.300;12.394;2023-08-06T07:42:00;3.70;;;2.07;;
25327;SDS011;13279;51.300;12.394;2023-08-06T07:44:29;2.40;;;2.00;;
25327;SDS011;13279;51.300;12.394;2023-08-06T07:46:57;5.73;;;2.10;;
25327;SDS011;13279;51.300;12.394;2023-08-06T07:49:24;2.77;;;2.00;;
25327;SDS011;13279;51.300;12.394;2023-08-06T07:51:53;4.63;;;2.03;;
25327;SDS011;13279;51.300;12.394;2023-08-06T07:54:20;2.77;;;1.60;;
25327;SDS011;13279;51.300;12.394;2023-08-06T07:56:49;1.80;;;1.70;;
25327;SDS011;13279;51.300;12.394;2023-08-06T07:59:16;1.63;;;1.60;;
25327;SDS011;13279;51.300;12.394;2023-08-06T08:01:45;1.60;;;1.50;;
25327;SDS011;13279;51.300;12.394;2023-08-06T08:04:12;1.37;;;1.30;;
25327;SDS011;13279;51.300;12.394;2023-08-06T08:06:40;3.50;;;1.67;;
25327;SDS011;13279;51.300;12.394;2023-08-06T08:09:09;1.70;;;1.60;;
25327;SDS011;13279;51.300;12.394;2023-08-06T08:11:39;1.70;;;1.60;;
25327;SDS011;13279;51.300;12.394;2023-08-06T08:14:06;1.50;;;1.40;;
25327;SDS011;13279;51.300;12.394;2023-08-06T08:16:34;2.80;;;1.63;;
25327;SDS011;13279;51.300;12.394;2023-08-06T08:19:01;2.93;;;1.90;;
25327;SDS011;13279;51.300;12.394;2023-08-06T08:21:29;2.33;;;1.50;;
25327;SDS011;13279;51.300;12.394;2023-08-06T08:23:58;2.10;;;1.63;;
25327;SDS011;13279;51.300;12.394;2023-08-06T08:26:28;8.43;;;1.60;;
25327;SDS011;13279;51.300;12.394;2023-08-06T08:28:55;1.67;;;1.57;;
25327;SDS011;13279;51.300;12.394;2023-08-06T08:31:24;1.60;;;1.50;;
25327;SDS011;13279;51.300;12.394;2023-08-06T08:33:51;3.10;;;1.70;;
25327;SDS011;13279;51.300;12.394;2023-08-06T08:36:19;3.87;;;1.93;;
25327;SDS011;13279;51.300;12.394;2023-08-06T08:38:46;4.67;;;2.40;;
25327;SDS011;13279;51.300;12.394;2023-08-06T08:41:15;2.23;;;2.03;;
25327;SDS011;13279;51.300;12.394;2023-08-06T08:43:44;4.90;;;1.77;;
25327;SDS011;13279;51.300;12.394;2023-08-06T08:46:11;1.80;;;1.70;;
25327;SDS011;13279;51.300;12.394;2023-08-06T08:48:40;1.77;;;1.67;;
25327;SDS011;13279;51.300;12.394;2023-08-06T08:51:07;2.40;;;2.20;;
25327;SDS011;13279;51.300;12.394;2023-08-06T08:53:36;2.03;;;1.83;;
25327;SDS011;13279;51.300;12.394;2023-08-06T08:56:07;1.93;;;1.73;;
25327;SDS011;13279;51.300;12.394;2023-08-06T08:58:35;3.23;;;1.87;;
25327;SDS011;13279;51.300;12.394;2023-08-06T09:01:04;1.80;;;1.47;;
25327;SDS011;13279;51.300;12.394;2023-08-06T09:03:34;1.80;;;1.70;;
25327;SDS011;13279;51.300;12.394;2023-08-06T09:06:02;2.10;;;1.90;;
25327;SDS011;13279;51.300;12.394;2023-08-06T09:08:32;1.83;;;1.73;;
25327;SDS011;13279;51.300;12.394;2023-08-06T09:11:04;2.13;;;2.03;;
25327;SDS011;13279;51.300;12.394;2023-08-06T09:13:31;3.37;;;1.90;;
25327;SDS011;13279;51.300;12.394;2023-08-06T09:15:59;1.60;;;1.50;;
25327;SDS011;13279;51.300;12.394;2023-08-06T09:18:28;2.03;;;1.87;;
25327;SDS011;13279;51.300;12.394;2023-08-06T09:20:57;2.93;;;1.40;;
25327;SDS011;13279;51.300;12.394;2023-08-06T09:23:28;1.63;;;1.53;;
25327;SDS011;13279;51.300;12.394;2023-08-06T09:25:56;1.93;;;1.83;;
25327;SDS011;13279;51.300;12.394;2023-08-06T09:28:24;1.63;;;1.53;;
25327;SDS011;13279;51.300;12.394;2023-08-06T09:30:52;1.33;;;1.27;;
25327;SDS011;13279;51.300;12.394;2023-08-06T09:33:22;2.23;;;1.43;;
25327;SDS011;13279;51.300;12.394;2023-08-06T09:35:51;4.17;;;1.50;;
25327;SDS011;13279;51.300;12.394;2023-08-06T09:38:20;2.03;;;1.77;;
25327;SDS011;13279;51.300;12.394;2023-08-06T09:40:48;1.70;;;1.60;;
25327;SDS011;13279;51.300;12.394;2023-08-06T09:43:15;1.80;;;1.70;;
25327;SDS011;13279;51.300;12.394;2023-08-06T09:45:46;2.47;;;1.70;;
25327;SDS011;13279;51.300;12.394;2023-08-06T09:48:13;2.10;;;1.70;;
25327;SDS011;13279;51.300;12.394;2023-08-06T09:50:40;1.80;;;1.70;;
25327;SDS011;13279;51.300;12.394;2023-08-06T09:53:09;3.07;;;1.80;;
25327;SDS011;13279;51.300;12.394;2023-08-06T09:55:37;1.97;;;1.67;;
25327;SDS011;13279;51.300;12.394;2023-08-06T09:58:04;4.33;;;1.90;;
25327;SDS011;13279;51.300;12.394;2023-08-06T10:00:33;3.53;;;1.73;;
25327;SDS011;13279;51.300;12.394;2023-08-06T10:03:00;2.20;;;2.00;;
25327;SDS011;13279;51.300;12.394;2023-08-06T10:05:28;2.10;;;1.90;;
25327;SDS011;13279;51.300;12.394;2023-08-06T10:07:58;2.27;;;2.03;;
25327;SDS011;13279;51.300;12.394;2023-08-06T10:10:29;2.10;;;1.90;;
25327;SDS011;13279;51.300;12.394;2023-08-06T10:12:58;1.70;;;1.60;;
25327;SDS011;13279;51.300;12.394;2023-08-06T10:15:28;1.60;;;1.50;;
25327;SDS011;13279;51.300;12.394;2023-08-06T10:17:58;1.80;;;1.70;;
25327;SDS011;13279;51.300;12.394;2023-08-06T10:20:28;1.67;;;1.57;;
25327;SDS011;13279;51.300;12.394;2023-08-06T10:23:00;3.03;;;2.10;;
25327;SDS011;13279;51.300;12.394;2023-08-06T10:25:33;2.00;;;1.83;;
25327;SDS011;13279;51.300;12.394;2023-08-06T10:28:06;3.90;;;2.10;;
25327;SDS011;13279;51.300;12.394;2023-08-06T10:30:41;2.20;;;2.10;;
25327;SDS011;13279;51.300;12.394;2023-08-06T10:33:10;2.27;;;2.07;;
25327;SDS011;13279;51.300;12.394;2023-08-06T10:35:38;2.20;;;2.00;;
25327;SDS011;13279;51.300;12.394;2023-08-06T10:38:10;2.70;;;1.90;;
25327;SDS011;13279;51.300;12.394;2023-08-06T10:40:43;1.43;;;1.27;;
25327;SDS011;13279;51.300;12.394;2023-08-06T10:43:24;1.83;;;1.67;;
25327;SDS011;13279;51.300;12.394;2023-08-06T10:45:52;2.37;;;2.17;;
25327;SDS011;13279;51.300;12.394;2023-08-06T10:48:28;2.10;;;1.90;;
25327;SDS011;13279;51.300;12.394;2023-08-06T10:50:56;2.43;;;2.23;;
25327;SDS011;13279;51.300;12.394;2023-08-06T10:53:23;2.00;;;1.87;;
25327;SDS011;13279;51.300;12.394;2023-08-06T10:55:53;2.17;;;2.07;;
25327;SDS011;13279;51.300;12.394;2023-08-06T10:58:20;2.33;;;1.90;;
25327;SDS011;13279;51.300;12.394;2023-08-06T11:00:48;2.63;;;2.43;;
25327;SDS011;13279;51.300;12.394;2023-08-06T11:03:15;4.10;;;1.90;;
25327;SDS011;13279;51.300;12.394;2023-08-06T11:05:48;3.13;;;1.97;;
25327;SDS011;13279;51.300;12.394;2023-08-06T11:08:22;2.87;;;2.17;;
25327;SDS011;13279;51.300;12.394;2023-08-06T11:10:50;6.67;;;2.53;;
25327;SDS011;13279;51.300;12.394;2023-08-06T11:13:20;3.60;;;2.00;;
25327;SDS011;13279;51.300;12.394;2023-08-06T11:15:47;1.90;;;1.80;;
25327;SDS011;13279;51.300;12.394;2023-08-06T11:18:15;3.23;;;2.20;;
25327;SDS011;13279;51.300;12.394;2023-08-06T11:20:43;3.23;;;2.00;;
25327;SDS011;13279;51.300;12.394;2023-08-06T11:23:12;2.23;;;2.13;;
25327;SDS011;13279;51.300;12.394;2023-08-06T11:25:43;2.60;;;2.40;;
25327;SDS011;13279;51.300;12.394;2023-08-06T11:28:13;3.33;;;2.13;;
25327;SDS011;13279;51.300;12.394;2023-08-06T11:30:41;5.67;;;2.60;;
25327;SDS011;13279;51.300;12.394;2023-08-06T11:33:08;5.67;;;2.37;;
25327;SDS011;13279;51.300;12.394;2023-08-06T11:35:36;2.50;;;2.30;;
25327;SDS011;13279;51.300;12.394;2023-08-06T11:38:05;2.43;;;2.23;;
25327;SDS011;13279;51.300;12.394;2023-08-06T11:40:35;4.70;;;2.70;;
25327;SDS011;13279;51.300;12.394;2023-08-06T11:43:03;3.93;;;2.07;;
25327;SDS011;13279;51.300;12.394;2023-08-06T11:45:34;2.40;;;2.20;;
25327;SDS011;13279;51.300;12.394;2023-08-06T11:48:02;3.10;;;2.83;;
25327;SDS011;13279;51.300;12.394;2023-08-06T11:50:31;2.90;;;2.40;;
25327;SDS011;13279;51.300;12.394;2023-08-06T11:53:03;4.53;;;2.30;;
25327;SDS011;13279;51.300;12.394;2023-08-06T11:55:30;5.17;;;2.70;;
25327;SDS011;13279;51.300;12.394;2023-08-06T11:57:59;2.40;;;2.10;;
25327;SDS011;13279;51.300;12.394;2023-08-06T12:00:30;2.60;;;2.40;;
25327;SDS011;13279;51.300;12.394;2023-08-06T12:02:59;4.13;;;2.37;;
25327;SDS011;13279;51.300;12.394;2023-08-06T12:05:31;2.90;;;2.70;;
25327;SDS011;13279;51.300;12.394;2023-08-06T12:08:00;2.37;;;2.17;;
25327;SDS011;13279;51.300;12.394;2023-08-06T12:10:28;3.33;;;2.70;;
25327;SDS011;13279;51.300;12.394;2023-08-06T12:12:57;2.70;;;2.60;;
25327;SDS011;13279;51.300;12.394;2023-08-06T12:15:25;2.53;;;2.33;;
25327;SDS011;13279;51.300;12.394;2023-08-06T12:17:53;2.00;;;1.77;;
25327;SDS011;13279;51.300;12.394;2023-08-06T12:20:22;1.80;;;1.70;;
25327;SDS011;13279;51.300;12.394;2023-08-06T12:22:49;1.53;;;1.50;;
25327;SDS011;13279;51.300;12.394;2023-08-06T12:25:17;1.80;;;1.50;;
25327;SDS011;13279;51.300;12.394;2023-08-06T12:27:44;1.70;;;1.60;;
25327;SDS011;13279;51.300;12.394;2023-08-06T12:30:13;3.53;;;1.43;;
25327;SDS011;13279;51.300;12.394;2023-08-06T12:32:40;1.43;;;1.20;;
25327;SDS011;13279;51.300;12.394;2023-08-06T12:35:08;2.30;;;1.70;;
25327;SDS011;13279;51.300;12.394;2023-08-06T12:37:37;2.80;;;1.60;;
25327;SDS011;13279;51.300;12.394;2023-08-06T12:40:05;1.30;;;1.30;;
25327;SDS011;13279;51.300;12.394;2023-08-06T12:42:33;4.77;;;1.53;;
25327;SDS011;13279;51.300;12.394;2023-08-06T12:45:01;2.90;;;1.40;;
25327;SDS011;13279;51.300;12.394;2023-08-06T12:47:29;1.20;;;1.10;;
25327;SDS011;13279;51.300;12.394;2023-08-06T12:49:56;1.00;;;1.00;;
25327;SDS011;13279;51.300;12.394;2023-08-06T12:52:24;1.37;;;1.20;;
25327;SDS011;13279;51.300;12.394;2023-08-06T12:54:53;1.80;;;1.37;;
25327;SDS011;13279;51.300;12.394;2023-08-06T12:57:21;8.00;;;1.57;;
25327;SDS011;13279;51.300;12.394;2023-08-06T12:59:48;4.00;;;1.30;;
25327;SDS011;13279;51.300;12.394;2023-08-06T13:02:16;2.07;;;1.30;;
25327;SDS011;13279;51.300;12.394;2023-08-06T13:04:45;1.30;;;1.20;;
25327;SDS011;13279;51.300;12.394;2023-08-06T13:07:13;1.40;;;1.30;;
25327;SDS011;13279;51.300;12.394;2023-08-06T13:09:41;2.70;;;1.50;;
25327;SDS011;13279;51.300;12.394;2023-08-06T13:12:10;2.07;;;1.30;;
25327;SDS011;13279;51.300;12.394;2023-08-06T13:14:37;2.90;;;1.60;;
25327;SDS011;13279;51.300;12.394;2023-08-06T13:17:05;1.50;;;1.40;;
25327;SDS011;13279;51.300;12.394;2023-08-06T13:19:34;1.33;;;1.20;;
25327;SDS011;13279;51.300;12.394;2023-08-06T13:22:02;1.80;;;1.50;;
25327;SDS011;13279;51.300;12.394;2023-08-06T13:24:32;1.67;;;1.57;;
25327;SDS011;13279;51.300;12.394;2023-08-06T13:27:00;1.37;;;1.17;;
25327;SDS011;13279;51.300;12.394;2023-08-06T13:29:29;2.00;;;1.20;;
25327;SDS011;13279;51.300;12.394;2023-08-06T13:31:56;1.10;;;1.10;;
25327;SDS011;13279;51.300;12.394;2023-08-06T13:34:24;4.93;;;1.30;;
25327;SDS011;13279;51.300;12.394;2023-08-06T13:36:51;2.83;;;1.00;;
25327;SDS011;13279;51.300;12.394;2023-08-06T13:39:19;1.37;;;1.10;;
25327;SDS011;13279;51.300;12.394;2023-08-06T13:41:46;1.57;;;1.47;;
25327;SDS011;13279;51.300;12.394;2023-08-06T13:44:14;2.13;;;1.20;;
25327;SDS011;13279;51.300;12.394;2023-08-06T13:46:43;1.43;;;1.33;;
25327;SDS011;13279;51.300;12.394;2023-08-06T13:49:11;1.17;;;1.17;;
25327;SDS011;13279;51.300;12.394;2023-08-06T13:51:38;4.07;;;1.40;;
25327;SDS011;13279;51.300;12.394;2023-08-06T13:54:06;3.50;;;1.20;;
25327;SDS011;13279;51.300;12.394;2023-08-06T13:56:34;2.20;;;1.00;;
25327;SDS011;13279;51.300;12.394;2023-08-06T13:59:03;1.53;;;1.20;;
25327;SDS011;13279;51.300;12.394;2023-08-06T14:01:31;1.08;;;1.08;;
25327;SDS011;13279;51.300;12.394;2023-08-06T14:04:00;1.75;;;0.95;;
25327;SDS011;13279;51.300;12.394;2023-08-06T14:06:28;2.60;;;1.20;;
25327;SDS011;13279;51.300;12.394;2023-08-06T14:08:56;2.70;;;1.17;;
25327;SDS011;13279;51.300;12.394;2023-08-06T14:11:23;1.30;;;1.20;;
25327;SDS011;13279;51.300;12.394;2023-08-06T14:13:51;1.25;;;1.17;;
25327;SDS011;13279;51.300;12.394;2023-08-06T14:16:18;1.38;;;1.20;;
25327;SDS011;13279;51.300;12.394;2023-08-06T14:18:46;1.10;;;0.98;;
25327;SDS011;13279;51.300;12.394;2023-08-06T14:21:15;1.15;;;1.00;;
25327;SDS011;13279;51.300;12.394;2023-08-06T14:23:42;1.02;;;1.02;;
25327;SDS011;13279;51.300;12.394;2023-08-06T14:26:10;1.13;;;1.00;;
25327;SDS011;13279;51.300;12.394;2023-08-06T14:28:40;0.80;;;0.80;;
25327;SDS011;13279;51.300;12.394;2023-08-06T14:31:07;1.05;;;0.95;;
25327;SDS011;13279;51.300;12.394;2023-08-06T14:33:35;1.20;;;1.10;;
25327;SDS011;13279;51.300;12.394;2023-08-06T14:36:02;0.98;;;0.93;;
25327;SDS011;13279;51.300;12.394;2023-08-06T14:38:32;1.30;;;1.23;;
25327;SDS011;13279;51.300;12.394;2023-08-06T14:41:00;1.05;;;1.05;;